sensor_id;sensor_type;location;lat;lon;timestamp;temperature;humidity
12384;DHT22;6256;63.808;20.336;2022-08-19T00:00:30;15.20;99.90
12384;DHT22;6256;63.808;20.336;2022-08-19T00:02:55;15.20;99.90
12384;DHT22;6256;63.808;20.336;2022-08-19T00:05:22;15.20;99.90
12384;DHT22;6256;63.808;20.336;2022-08-19T00:07:49;15.20;99.90
12384;DHT22;6256;63.808;20.336;2022-08-19T00:10:16;15.20;99.90
12384;DHT22;6256;63.808;20.336;2022-08-19T00:12:43;15.20;99.90
12384;DHT22;6256;63.808;20.336;2022-08-19T00:15:15;15.20;99.90
12384;DHT22;6256;63.808;20.336;2022-08-19T00:17:43;15.30;99.90
12384;DHT22;6256;63.808;20.336;2022-08-19T00:20:11;15.30;99.90
12384;DHT22;6256;63.808;20.336;2022-08-19T00:22:38;15.30;99.90
12384;DHT22;6256;63.808;20.336;2022-08-19T00:25:06;15.40;99.90
12384;DHT22;6256;63.808;20.336;2022-08-19T00:27:33;15.40;99.90
12384;DHT22;6256;63.808;20.336;2022-08-19T00:29:59;15.40;99.90
12384;DHT22;6256;63.808;20.336;2022-08-19T00:32:25;15.40;99.90
12384;DHT22;6256;63.808;20.336;2022-08-19T00:34:52;15.40;99.90
12384;DHT22;6256;63.808;20.336;2022-08-19T00:37:19;15.50;99.90
12384;DHT22;6256;63.808;20.336;2022-08-19T00:39:45;15.50;99.90
12384;DHT22;6256;63.808;20.336;2022-08-19T00:42:11;15.50;99.90
12384;DHT22;6256;63.808;20.336;2022-08-19T00:44:39;15.50;99.90
12384;DHT22;6256;63.808;20.336;2022-08-19T00:47:04;15.50;99.90
12384;DHT22;6256;63.808;20.336;2022-08-19T00:49:40;15.50;99.90
12384;DHT22;6256;63.808;20.336;2022-08-19T00:52:09;15.50;99.90
12384;DHT22;6256;63.808;20.336;2022-08-19T00:54:39;15.50;99.90
12384;DHT22;6256;63.808;20.336;2022-08-19T00:57:08;15.50;99.90
12384;DHT22;6256;63.808;20.336;2022-08-19T00:59:36;15.50;99.90
12384;DHT22;6256;63.808;20.336;2022-08-19T01:02:04;15.50;99.90
12384;DHT22;6256;63.808;20.336;2022-08-19T01:04:29;15.50;99.90
12384;DHT22;6256;63.808;20.336;2022-08-19T01:06:56;15.50;99.90
12384;DHT22;6256;63.808;20.336;2022-08-19T01:09:22;15.50;99.90
12384;DHT22;6256;63.808;20.336;2022-08-19T01:11:47;15.50;99.90
12384;DHT22;6256;63.808;20.336;2022-08-19T01:14:14;15.50;99.90
12384;DHT22;6256;63.808;20.336;2022-08-19T01:16:41;15.50;99.90
12384;DHT22;6256;63.808;20.336;2022-08-19T01:19:18;15.50;99.90
12384;DHT22;6256;63.808;20.336;2022-08-19T01:21:55;15.50;99.90
12384;DHT22;6256;63.808;20.336;2022-08-19T01:24:23;15.50;99.90
12384;DHT22;6256;63.808;20.336;2022-08-19T01:26:48;15.50;99.90
12384;DHT22;6256;63.808;20.336;2022-08-19T01:29:14;15.50;99.90
12384;DHT22;6256;63.808;20.336;2022-08-19T01:31:40;15.50;99.90
12384;DHT22;6256;63.808;20.336;2022-08-19T01:34:07;15.50;99.90
12384;DHT22;6256;63.808;20.336;2022-08-19T01:36:38;15.40;99.90
12384;DHT22;6256;63.808;20.336;2022-08-19T01:39:08;15.40;99.90
12384;DHT22;6256;63.808;20.336;2022-08-19T01:41:35;15.40;99.90
12384;DHT22;6256;63.808;20.336;2022-08-19T01:44:00;15.40;99.90
12384;DHT22;6256;63.808;20.336;2022-08-19T01:46:29;15.30;99.90
12384;DHT22;6256;63.808;20.336;2022-08-19T01:48:55;15.30;99.90
12384;DHT22;6256;63.808;20.336;2022-08-19T01:51:21;15.30;99.90
12384;DHT22;6256;63.808;20.336;2022-08-19T01:53:50;15.40;99.90
12384;DHT22;6256;63.808;20.336;2022-08-19T01:56:18;15.40;99.90
12384;DHT22;6256;63.808;20.336;2022-08-19T01:58:54;15.30;99.90
12384;DHT22;6256;63.808;20.336;2022-08-19T02:01:20;15.30;99.90
12384;DHT22;6256;63.808;20.336;2022-08-19T02:03:46;15.30;99.90
12384;DHT22;6256;63.808;20.336;2022-08-19T02:06:13;15.30;99.90
12384;DHT22;6256;63.808;20.336;2022-08-19T02:08:39;15.20;99.90
12384;DHT22;6256;63.808;20.336;2022-08-19T02:11:06;15.10;99.90
12384;DHT22;6256;63.808;20.336;2022-08-19T02:13:33;15.10;99.90
12384;DHT22;6256;63.808;20.336;2022-08-19T02:15:59;15.20;99.90
12384;DHT22;6256;63.808;20.336;2022-08-19T02:18:25;15.20;99.90
12384;DHT22;6256;63.808;20.336;2022-08-19T02:20:52;15.20;99.90
12384;DHT22;6256;63.808;20.336;2022-08-19T02:23:18;15.20;99.90
12384;DHT22;6256;63.808;20.336;2022-08-19T02:25:46;15.10;99.90
12384;DHT22;6256;63.808;20.336;2022-08-19T02:28:12;15.10;99.90
12384;DHT22;6256;63.808;20.336;2022-08-19T02:30:38;15.10;99.90
12384;DHT22;6256;63.808;20.336;2022-08-19T02:33:08;15.10;99.90
12384;DHT22;6256;63.808;20.336;2022-08-19T02:35:33;15.10;99.90
12384;DHT22;6256;63.808;20.336;2022-08-19T02:37:59;15.10;99.90
12384;DHT22;6256;63.808;20.336;2022-08-19T02:40:54;15.00;99.90
12384;DHT22;6256;63.808;20.336;2022-08-19T02:43:23;15.00;99.90
12384;DHT22;6256;63.808;20.336;2022-08-19T02:45:50;15.10;99.90
12384;DHT22;6256;63.808;20.336;2022-08-19T02:48:21;15.10;99.90
12384;DHT22;6256;63.808;20.336;2022-08-19T02:50:48;15.10;99.90
12384;DHT22;6256;63.808;20.336;2022-08-19T02:53:16;15.10;99.90
12384;DHT22;6256;63.808;20.336;2022-08-19T02:55:46;15.10;99.90
12384;DHT22;6256;63.808;20.336;2022-08-19T02:58:13;15.00;99.90
12384;DHT22;6256;63.808;20.336;2022-08-19T03:00:44;15.00;99.90
12384;DHT22;6256;63.808;20.336;2022-08-19T03:03:10;15.00;99.90
12384;DHT22;6256;63.808;20.336;2022-08-19T03:05:36;15.00;99.90
12384;DHT22;6256;63.808;20.336;2022-08-19T03:08:02;15.00;99.90
12384;DHT22;6256;63.808;20.336;2022-08-19T03:10:31;15.00;99.90
12384;DHT22;6256;63.808;20.336;2022-08-19T03:12:57;15.10;99.90
12384;DHT22;6256;63.808;20.336;2022-08-19T03:15:23;15.10;99.90
12384;DHT22;6256;63.808;20.336;2022-08-19T03:17:49;15.10;99.90
12384;DHT22;6256;63.808;20.336;2022-08-19T03:20:14;15.10;99.90
12384;DHT22;6256;63.808;20.336;2022-08-19T03:22:43;15.10;99.90
12384;DHT22;6256;63.808;20.336;2022-08-19T03:25:09;15.10;99.90
12384;DHT22;6256;63.808;20.336;2022-08-19T03:27:34;15.20;99.90
12384;DHT22;6256;63.808;20.336;2022-08-19T03:30:00;15.20;99.90
12384;DHT22;6256;63.808;20.336;2022-08-19T03:32:27;15.20;99.90
12384;DHT22;6256;63.808;20.336;2022-08-19T03:34:52;15.30;99.90
12384;DHT22;6256;63.808;20.336;2022-08-19T03:37:18;15.30;99.90
12384;DHT22;6256;63.808;20.336;2022-08-19T03:39:44;15.30;99.90
12384;DHT22;6256;63.808;20.336;2022-08-19T03:42:10;15.30;99.90
12384;DHT22;6256;63.808;20.336;2022-08-19T03:44:36;15.30;99.90
12384;DHT22;6256;63.808;20.336;2022-08-19T03:47:04;15.30;99.90
12384;DHT22;6256;63.808;20.336;2022-08-19T03:49:31;15.40;99.90
12384;DHT22;6256;63.808;20.336;2022-08-19T03:51:59;15.40;99.90
12384;DHT22;6256;63.808;20.336;2022-08-19T03:54:28;15.40;99.90
12384;DHT22;6256;63.808;20.336;2022-08-19T03:56:55;15.40;99.90
12384;DHT22;6256;63.808;20.336;2022-08-19T03:59:30;15.40;99.90
12384;DHT22;6256;63.808;20.336;2022-08-19T04:02:02;15.50;99.90
12384;DHT22;6256;63.808;20.336;2022-08-19T04:04:29;15.50;99.90
12384;DHT22;6256;63.808;20.336;2022-08-19T04:06:55;15.50;99.90
12384;DHT22;6256;63.808;20.336;2022-08-19T04:09:21;15.50;99.90
12384;DHT22;6256;63.808;20.336;2022-08-19T04:11:49;15.50;99.90
12384;DHT22;6256;63.808;20.336;2022-08-19T04:14:18;15.50;99.90
12384;DHT22;6256;63.808;20.336;2022-08-19T04:16:46;15.60;99.90
12384;DHT22;6256;63.808;20.336;2022-08-19T04:19:13;15.50;99.90
12384;DHT22;6256;63.808;20.336;2022-08-19T04:21:39;15.60;99.90
12384;DHT22;6256;63.808;20.336;2022-08-19T04:24:06;15.60;99.90
12384;DHT22;6256;63.808;20.336;2022-08-19T04:26:33;15.60;99.90
12384;DHT22;6256;63.808;20.336;2022-08-19T04:29:01;15.70;99.90
12384;DHT22;6256;63.808;20.336;2022-08-19T04:31:30;15.70;99.90
12384;DHT22;6256;63.808;20.336;2022-08-19T04:33:58;15.80;99.90
12384;DHT22;6256;63.808;20.336;2022-08-19T04:36:27;15.80;99.90
12384;DHT22;6256;63.808;20.336;2022-08-19T04:38:58;15.80;99.90
12384;DHT22;6256;63.808;20.336;2022-08-19T04:41:24;15.90;99.90
12384;DHT22;6256;63.808;20.336;2022-08-19T04:44:09;16.00;99.90
12384;DHT22;6256;63.808;20.336;2022-08-19T04:46:35;16.00;99.90
12384;DHT22;6256;63.808;20.336;2022-08-19T04:49:03;16.00;99.90
12384;DHT22;6256;63.808;20.336;2022-08-19T04:51:31;16.10;99.90
12384;DHT22;6256;63.808;20.336;2022-08-19T04:53:57;16.10;99.90
12384;DHT22;6256;63.808;20.336;2022-08-19T04:56:24;16.20;99.90
12384;DHT22;6256;63.808;20.336;2022-08-19T04:58:53;16.20;99.90
12384;DHT22;6256;63.808;20.336;2022-08-19T05:01:24;16.20;99.90
12384;DHT22;6256;63.808;20.336;2022-08-19T05:03:50;16.30;99.90
12384;DHT22;6256;63.808;20.336;2022-08-19T05:06:18;16.30;99.90
12384;DHT22;6256;63.808;20.336;2022-08-19T05:08:44;16.40;99.90
12384;DHT22;6256;63.808;20.336;2022-08-19T05:11:16;16.50;99.90
12384;DHT22;6256;63.808;20.336;2022-08-19T05:13:44;16.60;99.90
12384;DHT22;6256;63.808;20.336;2022-08-19T05:16:11;16.70;99.90
12384;DHT22;6256;63.808;20.336;2022-08-19T05:18:38;16.80;99.90
12384;DHT22;6256;63.808;20.336;2022-08-19T05:21:23;16.90;99.90
12384;DHT22;6256;63.808;20.336;2022-08-19T05:24:07;17.00;99.90
12384;DHT22;6256;63.808;20.336;2022-08-19T05:26:39;17.00;99.90
12384;DHT22;6256;63.808;20.336;2022-08-19T05:29:05;17.00;99.90
12384;DHT22;6256;63.808;20.336;2022-08-19T05:31:32;17.00;99.90
12384;DHT22;6256;63.808;20.336;2022-08-19T05:33:58;17.10;99.90
12384;DHT22;6256;63.808;20.336;2022-08-19T05:36:28;17.20;99.90
12384;DHT22;6256;63.808;20.336;2022-08-19T05:38:54;17.30;99.90
12384;DHT22;6256;63.808;20.336;2022-08-19T05:41:21;17.30;99.90
12384;DHT22;6256;63.808;20.336;2022-08-19T05:43:48;17.40;99.90
12384;DHT22;6256;63.808;20.336;2022-08-19T05:46:19;17.60;99.90
12384;DHT22;6256;63.808;20.336;2022-08-19T05:48:45;17.70;99.90
12384;DHT22;6256;63.808;20.336;2022-08-19T05:51:12;17.80;99.90
12384;DHT22;6256;63.808;20.336;2022-08-19T05:53:38;18.10;99.90
12384;DHT22;6256;63.808;20.336;2022-08-19T05:56:09;18.30;99.90
12384;DHT22;6256;63.808;20.336;2022-08-19T05:58:38;18.40;99.90
12384;DHT22;6256;63.808;20.336;2022-08-19T06:01:10;18.50;99.90
12384;DHT22;6256;63.808;20.336;2022-08-19T06:03:36;18.60;99.90
12384;DHT22;6256;63.808;20.336;2022-08-19T06:06:04;18.60;99.90
12384;DHT22;6256;63.808;20.336;2022-08-19T06:08:30;18.60;99.90
12384;DHT22;6256;63.808;20.336;2022-08-19T06:10:57;18.70;99.90
12384;DHT22;6256;63.808;20.336;2022-08-19T06:13:23;18.80;99.90
12384;DHT22;6256;63.808;20.336;2022-08-19T06:15:51;18.90;99.90
12384;DHT22;6256;63.808;20.336;2022-08-19T06:18:16;19.00;99.90
12384;DHT22;6256;63.808;20.336;2022-08-19T06:20:42;19.00;99.90
12384;DHT22;6256;63.808;20.336;2022-08-19T06:23:09;19.00;99.90
12384;DHT22;6256;63.808;20.336;2022-08-19T06:28:01;19.10;99.90
12384;DHT22;6256;63.808;20.336;2022-08-19T06:30:28;19.20;99.90
12384;DHT22;6256;63.808;20.336;2022-08-19T06:32:53;19.20;99.90
12384;DHT22;6256;63.808;20.336;2022-08-19T06:35:19;19.10;99.90
12384;DHT22;6256;63.808;20.336;2022-08-19T06:37:45;18.90;99.90
12384;DHT22;6256;63.808;20.336;2022-08-19T06:40:11;18.90;99.90
12384;DHT22;6256;63.808;20.336;2022-08-19T06:42:38;19.10;99.90
12384;DHT22;6256;63.808;20.336;2022-08-19T06:45:05;19.20;99.90
12384;DHT22;6256;63.808;20.336;2022-08-19T06:47:33;19.40;99.90
12384;DHT22;6256;63.808;20.336;2022-08-19T06:49:59;19.60;99.90
12384;DHT22;6256;63.808;20.336;2022-08-19T06:52:29;19.70;99.90
12384;DHT22;6256;63.808;20.336;2022-08-19T06:57:22;19.90;99.90
12384;DHT22;6256;63.808;20.336;2022-08-19T06:59:48;20.10;99.90
12384;DHT22;6256;63.808;20.336;2022-08-19T07:02:14;20.20;99.90
12384;DHT22;6256;63.808;20.336;2022-08-19T07:04:40;20.30;99.90
12384;DHT22;6256;63.808;20.336;2022-08-19T07:07:14;20.20;99.90
12384;DHT22;6256;63.808;20.336;2022-08-19T07:09:42;20.20;99.90
12384;DHT22;6256;63.808;20.336;2022-08-19T07:12:10;20.30;99.90
12384;DHT22;6256;63.808;20.336;2022-08-19T07:14:37;20.50;99.90
12384;DHT22;6256;63.808;20.336;2022-08-19T07:17:05;20.60;99.90
12384;DHT22;6256;63.808;20.336;2022-08-19T07:19:32;20.60;99.90
12384;DHT22;6256;63.808;20.336;2022-08-19T07:22:00;20.70;99.90
12384;DHT22;6256;63.808;20.336;2022-08-19T07:24:27;20.70;99.90
12384;DHT22;6256;63.808;20.336;2022-08-19T07:26:55;20.80;99.90
12384;DHT22;6256;63.808;20.336;2022-08-19T07:29:22;20.80;99.90
12384;DHT22;6256;63.808;20.336;2022-08-19T07:31:50;20.80;99.90
12384;DHT22;6256;63.808;20.336;2022-08-19T07:34:16;20.90;99.90
12384;DHT22;6256;63.808;20.336;2022-08-19T07:36:43;20.80;99.90
12384;DHT22;6256;63.808;20.336;2022-08-19T07:39:16;20.60;99.90
12384;DHT22;6256;63.808;20.336;2022-08-19T07:41:42;20.70;99.90
12384;DHT22;6256;63.808;20.336;2022-08-19T07:44:09;20.80;99.90
12384;DHT22;6256;63.808;20.336;2022-08-19T07:46:38;20.80;99.90
12384;DHT22;6256;63.808;20.336;2022-08-19T07:49:06;20.80;99.90
12384;DHT22;6256;63.808;20.336;2022-08-19T07:51:31;20.50;99.90
12384;DHT22;6256;63.808;20.336;2022-08-19T07:53:57;20.50;99.90
12384;DHT22;6256;63.808;20.336;2022-08-19T07:56:23;20.50;99.90
12384;DHT22;6256;63.808;20.336;2022-08-19T07:58:51;20.40;99.90
12384;DHT22;6256;63.808;20.336;2022-08-19T08:01:23;20.50;99.90
12384;DHT22;6256;63.808;20.336;2022-08-19T08:03:51;20.70;99.90
12384;DHT22;6256;63.808;20.336;2022-08-19T08:06:35;20.90;99.90
12384;DHT22;6256;63.808;20.336;2022-08-19T08:09:24;21.20;99.90
12384;DHT22;6256;63.808;20.336;2022-08-19T08:12:03;21.30;99.90
12384;DHT22;6256;63.808;20.336;2022-08-19T08:15:05;21.40;99.90
12384;DHT22;6256;63.808;20.336;2022-08-19T08:17:26;21.50;99.90
12384;DHT22;6256;63.808;20.336;2022-08-19T08:19:52;21.70;99.90
12384;DHT22;6256;63.808;20.336;2022-08-19T08:22:20;21.80;99.90
12384;DHT22;6256;63.808;20.336;2022-08-19T08:25:15;21.80;99.90
12384;DHT22;6256;63.808;20.336;2022-08-19T08:27:43;21.70;99.90
12384;DHT22;6256;63.808;20.336;2022-08-19T08:30:16;21.60;99.90
12384;DHT22;6256;63.808;20.336;2022-08-19T08:32:42;21.50;99.90
12384;DHT22;6256;63.808;20.336;2022-08-19T08:35:11;21.60;99.90
12384;DHT22;6256;63.808;20.336;2022-08-19T08:37:38;21.40;99.90
12384;DHT22;6256;63.808;20.336;2022-08-19T08:40:15;21.30;99.90
12384;DHT22;6256;63.808;20.336;2022-08-19T08:42:50;21.20;99.90
12384;DHT22;6256;63.808;20.336;2022-08-19T08:45:18;21.20;99.90
12384;DHT22;6256;63.808;20.336;2022-08-19T08:47:48;21.30;99.90
12384;DHT22;6256;63.808;20.336;2022-08-19T08:50:32;21.10;99.90
12384;DHT22;6256;63.808;20.336;2022-08-19T08:53:02;21.10;99.90
12384;DHT22;6256;63.808;20.336;2022-08-19T08:55:30;21.20;99.90
12384;DHT22;6256;63.808;20.336;2022-08-19T08:58:07;21.10;99.90
12384;DHT22;6256;63.808;20.336;2022-08-19T09:00:41;21.30;99.90
12384;DHT22;6256;63.808;20.336;2022-08-19T09:03:19;21.60;99.90
12384;DHT22;6256;63.808;20.336;2022-08-19T09:14:23;22.50;99.90
12384;DHT22;6256;63.808;20.336;2022-08-19T09:16:53;22.70;99.90
12384;DHT22;6256;63.808;20.336;2022-08-19T09:19:19;22.90;99.90
12384;DHT22;6256;63.808;20.336;2022-08-19T09:21:45;23.00;99.90
12384;DHT22;6256;63.808;20.336;2022-08-19T09:24:11;23.30;99.90
12384;DHT22;6256;63.808;20.336;2022-08-19T09:26:36;23.20;99.90
12384;DHT22;6256;63.808;20.336;2022-08-19T09:29:02;23.20;99.90
12384;DHT22;6256;63.808;20.336;2022-08-19T09:31:31;23.00;99.90
12384;DHT22;6256;63.808;20.336;2022-08-19T09:33:58;22.90;99.90
12384;DHT22;6256;63.808;20.336;2022-08-19T09:36:27;23.00;99.90
12384;DHT22;6256;63.808;20.336;2022-08-19T09:38:55;23.00;99.90
12384;DHT22;6256;63.808;20.336;2022-08-19T09:41:23;22.90;99.90
12384;DHT22;6256;63.808;20.336;2022-08-19T09:43:52;23.00;99.90
12384;DHT22;6256;63.808;20.336;2022-08-19T09:46:19;23.00;99.90
12384;DHT22;6256;63.808;20.336;2022-08-19T09:48:47;23.10;99.90
12384;DHT22;6256;63.808;20.336;2022-08-19T09:51:21;23.30;99.90
12384;DHT22;6256;63.808;20.336;2022-08-19T09:53:49;23.50;99.90
12384;DHT22;6256;63.808;20.336;2022-08-19T09:56:20;23.90;99.90
12384;DHT22;6256;63.808;20.336;2022-08-19T09:58:47;24.00;99.90
12384;DHT22;6256;63.808;20.336;2022-08-19T10:01:22;24.00;99.90
12384;DHT22;6256;63.808;20.336;2022-08-19T10:03:53;24.10;99.90
12384;DHT22;6256;63.808;20.336;2022-08-19T10:06:21;24.40;99.90
12384;DHT22;6256;63.808;20.336;2022-08-19T10:08:49;24.50;99.90
12384;DHT22;6256;63.808;20.336;2022-08-19T10:11:15;24.70;99.90
12384;DHT22;6256;63.808;20.336;2022-08-19T10:13:43;24.70;99.90
12384;DHT22;6256;63.808;20.336;2022-08-19T10:16:13;24.70;99.90
12384;DHT22;6256;63.808;20.336;2022-08-19T10:18:39;24.70;99.90
12384;DHT22;6256;63.808;20.336;2022-08-19T10:21:30;24.90;99.90
12384;DHT22;6256;63.808;20.336;2022-08-19T10:23:57;24.80;99.90
12384;DHT22;6256;63.808;20.336;2022-08-19T10:26:28;24.80;99.90
12384;DHT22;6256;63.808;20.336;2022-08-19T10:28:55;24.90;99.90
12384;DHT22;6256;63.808;20.336;2022-08-19T10:31:25;25.00;99.90
12384;DHT22;6256;63.808;20.336;2022-08-19T10:33:52;25.10;99.90
12384;DHT22;6256;63.808;20.336;2022-08-19T10:36:34;25.40;99.90
12384;DHT22;6256;63.808;20.336;2022-08-19T10:39:05;25.40;99.90
12384;DHT22;6256;63.808;20.336;2022-08-19T10:41:34;25.40;99.90
12384;DHT22;6256;63.808;20.336;2022-08-19T10:44:04;25.50;99.90
12384;DHT22;6256;63.808;20.336;2022-08-19T10:46:31;25.50;99.90
12384;DHT22;6256;63.808;20.336;2022-08-19T10:48:58;25.60;99.90
12384;DHT22;6256;63.808;20.336;2022-08-19T10:51:25;25.50;99.90
12384;DHT22;6256;63.808;20.336;2022-08-19T10:54:09;25.50;99.90
12384;DHT22;6256;63.808;20.336;2022-08-19T10:56:35;25.30;99.90
12384;DHT22;6256;63.808;20.336;2022-08-19T11:01:45;25.40;99.90
12384;DHT22;6256;63.808;20.336;2022-08-19T11:04:11;25.60;99.90
12384;DHT22;6256;63.808;20.336;2022-08-19T11:06:40;25.90;99.90
12384;DHT22;6256;63.808;20.336;2022-08-19T11:09:07;26.10;99.90
12384;DHT22;6256;63.808;20.336;2022-08-19T11:11:34;26.40;99.90
12384;DHT22;6256;63.808;20.336;2022-08-19T11:14:15;26.70;99.90
12384;DHT22;6256;63.808;20.336;2022-08-19T11:16:42;27.00;99.90
12384;DHT22;6256;63.808;20.336;2022-08-19T11:19:10;26.60;99.90
12384;DHT22;6256;63.808;20.336;2022-08-19T11:21:38;26.60;99.90
12384;DHT22;6256;63.808;20.336;2022-08-19T11:24:11;26.50;99.90
12384;DHT22;6256;63.808;20.336;2022-08-19T11:26:37;26.40;99.90
12384;DHT22;6256;63.808;20.336;2022-08-19T11:29:05;26.20;99.90
12384;DHT22;6256;63.808;20.336;2022-08-19T11:31:33;25.90;99.90
12384;DHT22;6256;63.808;20.336;2022-08-19T11:34:04;25.60;99.90
12384;DHT22;6256;63.808;20.336;2022-08-19T11:36:31;25.20;99.90
12384;DHT22;6256;63.808;20.336;2022-08-19T11:38:57;25.20;99.90
12384;DHT22;6256;63.808;20.336;2022-08-19T11:41:24;25.20;99.90
12384;DHT22;6256;63.808;20.336;2022-08-19T11:43:51;25.30;99.90
12384;DHT22;6256;63.808;20.336;2022-08-19T11:46:18;25.60;99.90
12384;DHT22;6256;63.808;20.336;2022-08-19T11:48:44;25.70;99.90
12384;DHT22;6256;63.808;20.336;2022-08-19T11:51:13;25.50;99.90
12384;DHT22;6256;63.808;20.336;2022-08-19T11:53:39;25.40;99.90
12384;DHT22;6256;63.808;20.336;2022-08-19T11:56:06;25.50;99.90
12384;DHT22;6256;63.808;20.336;2022-08-19T11:58:32;25.40;99.90
12384;DHT22;6256;63.808;20.336;2022-08-19T12:00:58;25.70;99.90
12384;DHT22;6256;63.808;20.336;2022-08-19T12:03:26;26.20;99.90
12384;DHT22;6256;63.808;20.336;2022-08-19T12:05:53;26.20;99.90
12384;DHT22;6256;63.808;20.336;2022-08-19T12:08:19;26.10;99.90
12384;DHT22;6256;63.808;20.336;2022-08-19T12:10:45;26.20;99.90
12384;DHT22;6256;63.808;20.336;2022-08-19T12:13:14;26.20;99.90
12384;DHT22;6256;63.808;20.336;2022-08-19T12:15:45;26.20;99.90
12384;DHT22;6256;63.808;20.336;2022-08-19T12:18:12;26.10;99.90
12384;DHT22;6256;63.808;20.336;2022-08-19T12:20:43;26.10;99.90
12384;DHT22;6256;63.808;20.336;2022-08-19T12:23:09;26.30;99.90
12384;DHT22;6256;63.808;20.336;2022-08-19T12:25:36;26.30;99.90
12384;DHT22;6256;63.808;20.336;2022-08-19T12:28:03;26.40;99.90
12384;DHT22;6256;63.808;20.336;2022-08-19T12:30:29;26.10;99.90
12384;DHT22;6256;63.808;20.336;2022-08-19T12:32:57;26.00;99.90
12384;DHT22;6256;63.808;20.336;2022-08-19T12:35:23;26.10;99.90
12384;DHT22;6256;63.808;20.336;2022-08-19T12:37:49;26.30;99.90
12384;DHT22;6256;63.808;20.336;2022-08-19T12:40:16;26.40;99.90
12384;DHT22;6256;63.808;20.336;2022-08-19T12:42:44;26.60;99.90
12384;DHT22;6256;63.808;20.336;2022-08-19T12:45:11;26.60;99.90
12384;DHT22;6256;63.808;20.336;2022-08-19T12:47:38;26.60;99.90
12384;DHT22;6256;63.808;20.336;2022-08-19T12:50:05;26.60;99.90
12384;DHT22;6256;63.808;20.336;2022-08-19T12:52:35;26.90;99.90
12384;DHT22;6256;63.808;20.336;2022-08-19T12:55:07;27.10;99.90
12384;DHT22;6256;63.808;20.336;2022-08-19T12:57:33;27.20;99.90
12384;DHT22;6256;63.808;20.336;2022-08-19T13:00:09;27.30;99.90
12384;DHT22;6256;63.808;20.336;2022-08-19T13:02:44;27.60;99.90
12384;DHT22;6256;63.808;20.336;2022-08-19T13:05:14;27.60;99.90
12384;DHT22;6256;63.808;20.336;2022-08-19T13:07:41;28.10;99.90
12384;DHT22;6256;63.808;20.336;2022-08-19T13:10:10;27.70;99.90
12384;DHT22;6256;63.808;20.336;2022-08-19T13:12:38;27.30;99.90
12384;DHT22;6256;63.808;20.336;2022-08-19T13:15:04;27.20;99.90
12384;DHT22;6256;63.808;20.336;2022-08-19T13:17:30;27.90;99.90
12384;DHT22;6256;63.808;20.336;2022-08-19T13:19:58;29.30;99.90
12384;DHT22;6256;63.808;20.336;2022-08-19T13:22:24;29.70;99.90
12384;DHT22;6256;63.808;20.336;2022-08-19T13:24:50;29.90;99.90
12384;DHT22;6256;63.808;20.336;2022-08-19T13:27:16;30.10;99.90
12384;DHT22;6256;63.808;20.336;2022-08-19T13:29:42;30.00;99.90
12384;DHT22;6256;63.808;20.336;2022-08-19T13:32:28;30.00;99.90
12384;DHT22;6256;63.808;20.336;2022-08-19T13:35:12;30.10;99.90
12384;DHT22;6256;63.808;20.336;2022-08-19T13:37:38;30.10;99.90
12384;DHT22;6256;63.808;20.336;2022-08-19T13:40:14;30.20;99.90
12384;DHT22;6256;63.808;20.336;2022-08-19T13:42:43;30.20;99.90
12384;DHT22;6256;63.808;20.336;2022-08-19T13:45:10;30.60;99.90
12384;DHT22;6256;63.808;20.336;2022-08-19T13:47:39;31.10;99.90
12384;DHT22;6256;63.808;20.336;2022-08-19T13:50:09;30.50;99.90
12384;DHT22;6256;63.808;20.336;2022-08-19T13:52:36;30.20;99.90
12384;DHT22;6256;63.808;20.336;2022-08-19T13:55:02;30.70;99.90
12384;DHT22;6256;63.808;20.336;2022-08-19T13:57:30;30.50;99.90
12384;DHT22;6256;63.808;20.336;2022-08-19T13:59:57;30.80;99.90
12384;DHT22;6256;63.808;20.336;2022-08-19T14:02:23;30.20;99.90
12384;DHT22;6256;63.808;20.336;2022-08-19T14:04:49;30.90;99.90
12384;DHT22;6256;63.808;20.336;2022-08-19T14:07:15;30.60;99.90
12384;DHT22;6256;63.808;20.336;2022-08-19T14:09:41;31.00;99.90
12384;DHT22;6256;63.808;20.336;2022-08-19T14:12:07;31.00;99.90
12384;DHT22;6256;63.808;20.336;2022-08-19T14:14:37;31.10;99.90
12384;DHT22;6256;63.808;20.336;2022-08-19T14:17:06;31.00;99.90
12384;DHT22;6256;63.808;20.336;2022-08-19T14:19:32;30.70;99.90
12384;DHT22;6256;63.808;20.336;2022-08-19T14:21:58;30.40;99.90
12384;DHT22;6256;63.808;20.336;2022-08-19T14:24:24;30.70;99.90
12384;DHT22;6256;63.808;20.336;2022-08-19T14:26:50;31.00;99.90
12384;DHT22;6256;63.808;20.336;2022-08-19T14:29:15;31.50;99.90
12384;DHT22;6256;63.808;20.336;2022-08-19T14:31:41;32.10;99.90
12384;DHT22;6256;63.808;20.336;2022-08-19T14:34:08;32.70;99.90
12384;DHT22;6256;63.808;20.336;2022-08-19T14:36:36;33.10;99.90
12384;DHT22;6256;63.808;20.336;2022-08-19T14:39:02;33.60;99.90
12384;DHT22;6256;63.808;20.336;2022-08-19T14:41:28;33.70;99.70
12384;DHT22;6256;63.808;20.336;2022-08-19T14:43:56;34.00;98.80
12384;DHT22;6256;63.808;20.336;2022-08-19T14:46:24;34.10;98.80
12384;DHT22;6256;63.808;20.336;2022-08-19T14:48:51;34.40;97.90
12384;DHT22;6256;63.808;20.336;2022-08-19T14:51:19;34.50;97.00
12384;DHT22;6256;63.808;20.336;2022-08-19T14:53:45;34.40;96.70
12384;DHT22;6256;63.808;20.336;2022-08-19T14:56:16;34.50;95.40
12384;DHT22;6256;63.808;20.336;2022-08-19T14:58:43;34.60;95.90
12384;DHT22;6256;63.808;20.336;2022-08-19T15:01:10;34.40;95.20
12384;DHT22;6256;63.808;20.336;2022-08-19T15:03:37;34.50;95.10
12384;DHT22;6256;63.808;20.336;2022-08-19T15:06:04;34.50;95.30
12384;DHT22;6256;63.808;20.336;2022-08-19T15:08:31;34.60;94.40
12384;DHT22;6256;63.808;20.336;2022-08-19T15:10:57;34.80;94.40
12384;DHT22;6256;63.808;20.336;2022-08-19T15:13:25;34.90;94.20
12384;DHT22;6256;63.808;20.336;2022-08-19T15:15:52;35.10;93.80
12384;DHT22;6256;63.808;20.336;2022-08-19T15:18:18;35.40;93.20
12384;DHT22;6256;63.808;20.336;2022-08-19T15:20:46;35.40;92.80
12384;DHT22;6256;63.808;20.336;2022-08-19T15:23:14;35.30;92.80
12384;DHT22;6256;63.808;20.336;2022-08-19T15:25:40;35.30;92.30
12384;DHT22;6256;63.808;20.336;2022-08-19T15:28:07;34.90;92.40
12384;DHT22;6256;63.808;20.336;2022-08-19T15:30:37;34.50;92.70
12384;DHT22;6256;63.808;20.336;2022-08-19T15:33:03;34.80;92.20
12384;DHT22;6256;63.808;20.336;2022-08-19T15:35:28;34.20;92.30
12384;DHT22;6256;63.808;20.336;2022-08-19T15:37:55;34.00;92.70
12384;DHT22;6256;63.808;20.336;2022-08-19T15:40:22;34.10;92.30
12384;DHT22;6256;63.808;20.336;2022-08-19T15:42:48;33.60;92.70
12384;DHT22;6256;63.808;20.336;2022-08-19T15:45:16;33.70;92.70
12384;DHT22;6256;63.808;20.336;2022-08-19T15:47:42;32.80;92.90
12384;DHT22;6256;63.808;20.336;2022-08-19T15:50:19;32.10;93.80
12384;DHT22;6256;63.808;20.336;2022-08-19T15:52:51;31.00;94.50